sensor_id;sensor_type;location;lat;lon;timestamp;pressure;altitude;pressure_sealevel;temperature;humidity
11327;BME280;5718;42.138;24.762;2023-08-12T00:02:01;99923.91;;;22.50;100.00
11327;BME280;5718;42.138;24.762;2023-08-12T00:04:28;99921.91;;;22.34;100.00
11327;BME280;5718;42.138;24.762;2023-08-12T00:06:54;99918.75;;;22.47;100.00
11327;BME280;5718;42.138;24.762;2023-08-12T00:09:21;99923.09;;;22.48;100.00
11327;BME280;5718;42.138;24.762;2023-08-12T00:11:48;99929.25;;;22.28;100.00
11327;BME280;5718;42.138;24.762;2023-08-12T00:14:16;99925.28;;;22.16;100.00
11327;BME280;5718;42.138;24.762;2023-08-12T00:16:43;99927.16;;;22.14;100.00
11327;BME280;5718;42.138;24.762;2023-08-12T00:19:09;99918.66;;;22.28;100.00
11327;BME280;5718;42.138;24.762;2023-08-12T00:21:36;99926.13;;;22.18;100.00
11327;BME280;5718;42.138;24.762;2023-08-12T00:24:03;99922.84;;;22.11;100.00
11327;BME280;5718;42.138;24.762;2023-08-12T00:26:30;99920.22;;;22.32;100.00
11327;BME280;5718;42.138;24.762;2023-08-12T00:28:57;99915.38;;;22.43;100.00
11327;BME280;5718;42.138;24.762;2023-08-12T00:31:25;99922.09;;;22.30;100.00
11327;BME280;5718;42.138;24.762;2023-08-12T00:33:51;99918.75;;;22.25;100.00
11327;BME280;5718;42.138;24.762;2023-08-12T00:36:18;99912.38;;;22.30;100.00
11327;BME280;5718;42.138;24.762;2023-08-12T00:38:45;99924.34;;;22.17;100.00
11327;BME280;5718;42.138;24.762;2023-08-12T00:41:11;99921.34;;;22.04;100.00
11327;BME280;5718;42.138;24.762;2023-08-12T00:43:38;99920.94;;;22.15;100.00
11327;BME280;5718;42.138;24.762;2023-08-12T00:46:05;99911.41;;;22.11;100.00
11327;BME280;5718;42.138;24.762;2023-08-12T00:48:33;99913.47;;;22.25;100.00
11327;BME280;5718;42.138;24.762;2023-08-12T00:51:00;99914.69;;;22.38;100.00
11327;BME280;5718;42.138;24.762;2023-08-12T00:53:28;99915.69;;;22.35;100.00
11327;BME280;5718;42.138;24.762;2023-08-12T00:55:55;99906.13;;;22.31;100.00
11327;BME280;5718;42.138;24.762;2023-08-12T00:58:22;99908.13;;;22.26;100.00
11327;BME280;5718;42.138;24.762;2023-08-12T01:00:49;99897.66;;;22.23;100.00
11327;BME280;5718;42.138;24.762;2023-08-12T01:03:16;99906.31;;;22.05;100.00
11327;BME280;5718;42.138;24.762;2023-08-12T01:05:44;99905.50;;;22.26;100.00
11327;BME280;5718;42.138;24.762;2023-08-12T01:08:11;99911.19;;;22.37;100.00
11327;BME280;5718;42.138;24.762;2023-08-12T01:10:39;99912.50;;;22.48;100.00
11327;BME280;5718;42.138;24.762;2023-08-12T01:13:17;99908.94;;;22.28;100.00
11327;BME280;5718;42.138;24.762;2023-08-12T01:15:45;99909.03;;;22.25;100.00
11327;BME280;5718;42.138;24.762;2023-08-12T01:18:16;99909.47;;;22.14;100.00
11327;BME280;5718;42.138;24.762;2023-08-12T01:20:45;99905.41;;;22.28;100.00
11327;BME280;5718;42.138;24.762;2023-08-12T01:23:14;99908.28;;;22.00;100.00
11327;BME280;5718;42.138;24.762;2023-08-12T01:25:41;99906.69;;;22.18;100.00
11327;BME280;5718;42.138;24.762;2023-08-12T01:28:08;99914.56;;;21.97;100.00
11327;BME280;5718;42.138;24.762;2023-08-12T01:30:39;99905.69;;;21.98;100.00
11327;BME280;5718;42.138;24.762;2023-08-12T01:33:14;99907.41;;;21.99;100.00
11327;BME280;5718;42.138;24.762;2023-08-12T01:35:44;99906.78;;;21.93;100.00
11327;BME280;5718;42.138;24.762;2023-08-12T01:38:15;99907.41;;;21.99;100.00
11327;BME280;5718;42.138;24.762;2023-08-12T01:40:44;99918.00;;;21.99;100.00
11327;BME280;5718;42.138;24.762;2023-08-12T01:43:12;99912.19;;;21.68;100.00
11327;BME280;5718;42.138;24.762;2023-08-12T01:45:39;99917.84;;;21.58;100.00
11327;BME280;5718;42.138;24.762;2023-08-12T01:48:09;99909.47;;;21.47;100.00
11327;BME280;5718;42.138;24.762;2023-08-12T01:50:36;99912.66;;;21.55;100.00
11327;BME280;5718;42.138;24.762;2023-08-12T01:53:03;99916.00;;;21.61;100.00
11327;BME280;5718;42.138;24.762;2023-08-12T01:55:31;99907.28;;;21.35;100.00
11327;BME280;5718;42.138;24.762;2023-08-12T01:57:58;99906.97;;;21.43;100.00
11327;BME280;5718;42.138;24.762;2023-08-12T02:00:24;99911.38;;;21.44;100.00
11327;BME280;5718;42.138;24.762;2023-08-12T02:02:51;99909.00;;;21.36;100.00
11327;BME280;5718;42.138;24.762;2023-08-12T02:05:18;99910.41;;;21.21;100.00
11327;BME280;5718;42.138;24.762;2023-08-12T02:07:44;99911.47;;;21.16;100.00
11327;BME280;5718;42.138;24.762;2023-08-12T02:10:11;99909.59;;;21.19;100.00
11327;BME280;5718;42.138;24.762;2023-08-12T02:12:41;99912.91;;;21.24;100.00
11327;BME280;5718;42.138;24.762;2023-08-12T02:15:09;99902.28;;;21.26;100.00
11327;BME280;5718;42.138;24.762;2023-08-12T02:17:36;99904.41;;;21.16;100.00
11327;BME280;5718;42.138;24.762;2023-08-12T02:20:04;99903.16;;;21.03;100.00
11327;BME280;5718;42.138;24.762;2023-08-12T02:22:30;99907.63;;;21.01;100.00
11327;BME280;5718;42.138;24.762;2023-08-12T02:24:57;99900.94;;;20.91;100.00
11327;BME280;5718;42.138;24.762;2023-08-12T02:27:24;99910.81;;;20.86;100.00
11327;BME280;5718;42.138;24.762;2023-08-12T02:29:52;99906.75;;;20.75;100.00
11327;BME280;5718;42.138;24.762;2023-08-12T02:32:19;99917.19;;;20.80;100.00
11327;BME280;5718;42.138;24.762;2023-08-12T02:34:46;99915.53;;;20.76;100.00
11327;BME280;5718;42.138;24.762;2023-08-12T02:37:12;99915.72;;;20.71;100.00
11327;BME280;5718;42.138;24.762;2023-08-12T02:39:39;99919.97;;;20.75;100.00
11327;BME280;5718;42.138;24.762;2023-08-12T02:42:06;99920.22;;;20.68;100.00
11327;BME280;5718;42.138;24.762;2023-08-12T02:44:32;99916.56;;;20.72;100.00
11327;BME280;5718;42.138;24.762;2023-08-12T02:47:00;99926.34;;;20.70;100.00
11327;BME280;5718;42.138;24.762;2023-08-12T02:49:27;99923.53;;;20.74;100.00
11327;BME280;5718;42.138;24.762;2023-08-12T02:51:54;99925.97;;;20.81;100.00
11327;BME280;5718;42.138;24.762;2023-08-12T02:54:20;99928.81;;;20.74;100.00
11327;BME280;5718;42.138;24.762;2023-08-12T02:56:47;99924.22;;;20.80;100.00
11327;BME280;5718;42.138;24.762;2023-08-12T02:59:14;99926.06;;;20.78;100.00
11327;BME280;5718;42.138;24.762;2023-08-12T03:01:41;99928.81;;;20.74;100.00
11327;BME280;5718;42.138;24.762;2023-08-12T03:04:09;99927.56;;;20.85;100.00
11327;BME280;5718;42.138;24.762;2023-08-12T03:06:36;99929.47;;;20.81;100.00
11327;BME280;5718;42.138;24.762;2023-08-12T03:09:03;99930.19;;;20.85;100.00
11327;BME280;5718;42.138;24.762;2023-08-12T03:11:30;99934.41;;;20.90;100.00
11327;BME280;5718;42.138;24.762;2023-08-12T03:13:56;99937.84;;;20.92;100.00
11327;BME280;5718;42.138;24.762;2023-08-12T03:16:23;99926.00;;;21.04;100.00
11327;BME280;5718;42.138;24.762;2023-08-12T03:18:50;99922.66;;;20.99;100.00
11327;BME280;5718;42.138;24.762;2023-08-12T03:21:18;99931.50;;;20.98;100.00
11327;BME280;5718;42.138;24.762;2023-08-12T03:23:44;99931.66;;;20.93;100.00
11327;BME280;5718;42.138;24.762;2023-08-12T03:26:11;99926.97;;;21.01;100.00
11327;BME280;5718;42.138;24.762;2023-08-12T03:28:39;99930.19;;;21.10;100.00
11327;BME280;5718;42.138;24.762;2023-08-12T03:31:06;99925.09;;;21.05;100.00
11327;BME280;5718;42.138;24.762;2023-08-12T03:33:33;99927.66;;;21.07;100.00
11327;BME280;5718;42.138;24.762;2023-08-12T03:35:59;99928.38;;;21.12;100.00
11327;BME280;5718;42.138;24.762;2023-08-12T03:38:28;99933.47;;;21.16;100.00
11327;BME280;5718;42.138;24.762;2023-08-12T03:40:54;99934.84;;;21.26;100.00
11327;BME280;5718;42.138;24.762;2023-08-12T03:43:21;99937.63;;;21.23;100.00
11327;BME280;5718;42.138;24.762;2023-08-12T03:45:48;99939.47;;;21.21;100.00
11327;BME280;5718;42.138;24.762;2023-08-12T03:48:14;99944.81;;;21.20;100.00
11327;BME280;5718;42.138;24.762;2023-08-12T03:50:41;99939.41;;;21.23;100.00
11327;BME280;5718;42.138;24.762;2023-08-12T03:53:08;99950.47;;;21.34;100.00
11327;BME280;5718;42.138;24.762;2023-08-12T03:55:36;99952.03;;;21.40;100.00
11327;BME280;5718;42.138;24.762;2023-08-12T03:58:03;99952.50;;;21.26;100.00
11327;BME280;5718;42.138;24.762;2023-08-12T04:00:30;99956.25;;;21.20;100.00
11327;BME280;5718;42.138;24.762;2023-08-12T04:02:57;99953.16;;;21.33;100.00
11327;BME280;5718;42.138;24.762;2023-08-12T04:05:23;99961.22;;;21.29;100.00
11327;BME280;5718;42.138;24.762;2023-08-12T04:07:50;99962.53;;;21.41;100.00
11327;BME280;5718;42.138;24.762;2023-08-12T04:10:17;99964.25;;;21.17;100.00
11327;BME280;5718;42.138;24.762;2023-08-12T04:12:45;99956.00;;;21.28;100.00
11327;BME280;5718;42.138;24.762;2023-08-12T04:15:11;99958.47;;;21.33;100.00
11327;BME280;5718;42.138;24.762;2023-08-12T04:17:38;99963.75;;;21.33;100.00
11327;BME280;5718;42.138;24.762;2023-08-12T04:20:07;99961.91;;;21.35;100.00
11327;BME280;5718;42.138;24.762;2023-08-12T04:22:34;99966.31;;;21.34;100.00
11327;BME280;5718;42.138;24.762;2023-08-12T04:25:02;99969.75;;;21.61;100.00
11327;BME280;5718;42.138;24.762;2023-08-12T04:27:29;99967.47;;;21.52;100.00
11327;BME280;5718;42.138;24.762;2023-08-12T04:29:57;99973.88;;;21.68;100.00
11327;BME280;5718;42.138;24.762;2023-08-12T04:32:24;99968.53;;;21.70;100.00
11327;BME280;5718;42.138;24.762;2023-08-12T04:34:50;99969.41;;;21.70;100.00
11327;BME280;5718;42.138;24.762;2023-08-12T04:37:17;99976.19;;;21.54;100.00
11327;BME280;5718;42.138;24.762;2023-08-12T04:39:44;99971.50;;;21.37;100.00
11327;BME280;5718;42.138;24.762;2023-08-12T04:42:11;99973.34;;;21.10;100.00
11327;BME280;5718;42.138;24.762;2023-08-12T04:44:37;99979.78;;;21.26;100.00
11327;BME280;5718;42.138;24.762;2023-08-12T04:47:06;99976.28;;;21.27;100.00
11327;BME280;5718;42.138;24.762;2023-08-12T04:49:32;99979.31;;;21.15;100.00
11327;BME280;5718;42.138;24.762;2023-08-12T04:51:59;99985.63;;;21.11;100.00
11327;BME280;5718;42.138;24.762;2023-08-12T04:54:26;99981.22;;;21.12;100.00
11327;BME280;5718;42.138;24.762;2023-08-12T04:56:52;99976.09;;;21.32;100.00
11327;BME280;5718;42.138;24.762;2023-08-12T04:59:19;99982.31;;;21.54;100.00
11327;BME280;5718;42.138;24.762;2023-08-12T05:01:46;99980.19;;;21.41;100.00
11327;BME280;5718;42.138;24.762;2023-08-12T05:04:14;99982.53;;;21.23;100.00
11327;BME280;5718;42.138;24.762;2023-08-12T05:06:41;99979.50;;;21.36;100.00
11327;BME280;5718;42.138;24.762;2023-08-12T05:09:08;99981.31;;;21.34;100.00
11327;BME280;5718;42.138;24.762;2023-08-12T05:11:34;99977.13;;;21.28;100.00
11327;BME280;5718;42.138;24.762;2023-08-12T05:14:01;99981.09;;;21.40;100.00
11327;BME280;5718;42.138;24.762;2023-08-12T05:16:28;99982.63;;;21.47;100.00
11327;BME280;5718;42.138;24.762;2023-08-12T05:18:55;99971.84;;;21.51;100.00
11327;BME280;5718;42.138;24.762;2023-08-12T05:21:23;99973.03;;;21.44;100.00
11327;BME280;5718;42.138;24.762;2023-08-12T05:23:50;99982.88;;;21.39;100.00
11327;BME280;5718;42.138;24.762;2023-08-12T05:26:16;99982.72;;;21.44;100.00
11327;BME280;5718;42.138;24.762;2023-08-12T05:28:43;99983.34;;;21.50;100.00
11327;BME280;5718;42.138;24.762;2023-08-12T05:31:10;99984.19;;;21.51;100.00
11327;BME280;5718;42.138;24.762;2023-08-12T05:33:36;99995.75;;;21.23;100.00
11327;BME280;5718;42.138;24.762;2023-08-12T05:36:03;99985.69;;;21.35;100.00
11327;BME280;5718;42.138;24.762;2023-08-12T05:38:31;99990.47;;;21.23;100.00
11327;BME280;5718;42.138;24.762;2023-08-12T05:40:58;99989.75;;;21.45;100.00
11327;BME280;5718;42.138;24.762;2023-08-12T05:43:25;99986.63;;;21.57;100.00
11327;BME280;5718;42.138;24.762;2023-08-12T05:45:51;99987.47;;;21.34;100.00
11327;BME280;5718;42.138;24.762;2023-08-12T05:48:18;99981.31;;;21.34;100.00
11327;BME280;5718;42.138;24.762;2023-08-12T05:50:45;99981.09;;;21.40;100.00
11327;BME280;5718;42.138;24.762;2023-08-12T05:53:12;99978.00;;;21.28;100.00
11327;BME280;5718;42.138;24.762;2023-08-12T05:55:40;99979.69;;;21.78;100.00
11327;BME280;5718;42.138;24.762;2023-08-12T05:58:07;99979.41;;;21.62;100.00
11327;BME280;5718;42.138;24.762;2023-08-12T06:00:34;99977.09;;;21.53;100.00
11327;BME280;5718;42.138;24.762;2023-08-12T06:03:01;99972.84;;;21.72;100.00
11327;BME280;5718;42.138;24.762;2023-08-12T06:05:27;99980.03;;;21.69;100.00
11327;BME280;5718;42.138;24.762;2023-08-12T06:07:54;99967.47;;;21.97;100.00
11327;BME280;5718;42.138;24.762;2023-08-12T06:10:21;99966.34;;;21.81;100.00
11327;BME280;5718;42.138;24.762;2023-08-12T06:12:49;99968.03;;;21.60;100.00
11327;BME280;5718;42.138;24.762;2023-08-12T06:15:15;99971.81;;;21.76;100.00
11327;BME280;5718;42.138;24.762;2023-08-12T06:17:42;99962.34;;;21.93;100.00
11327;BME280;5718;42.138;24.762;2023-08-12T06:20:09;99965.50;;;22.02;100.00
11327;BME280;5718;42.138;24.762;2023-08-12T06:22:36;99964.19;;;22.14;100.00
11327;BME280;5718;42.138;24.762;2023-08-12T06:25:04;99964.13;;;22.37;100.00
11327;BME280;5718;42.138;24.762;2023-08-12T06:27:30;99968.00;;;22.29;100.00
11327;BME280;5718;42.138;24.762;2023-08-12T06:29:58;99963.34;;;22.35;100.00
11327;BME280;5718;42.138;24.762;2023-08-12T06:32:25;99966.63;;;22.62;100.00
11327;BME280;5718;42.138;24.762;2023-08-12T06:34:52;99962.03;;;22.88;100.00
11327;BME280;5718;42.138;24.762;2023-08-12T06:37:18;99961.19;;;22.87;100.00
11327;BME280;5718;42.138;24.762;2023-08-12T06:39:45;99964.00;;;23.23;97.53
11327;BME280;5718;42.138;24.762;2023-08-12T06:42:12;99966.47;;;23.86;92.75
11327;BME280;5718;42.138;24.762;2023-08-12T06:44:38;99965.78;;;24.37;88.08
11327;BME280;5718;42.138;24.762;2023-08-12T06:47:06;99973.09;;;24.32;86.48
11327;BME280;5718;42.138;24.762;2023-08-12T06:49:33;99966.94;;;24.13;88.04
11327;BME280;5718;42.138;24.762;2023-08-12T06:52:00;99972.34;;;24.48;84.63
11327;BME280;5718;42.138;24.762;2023-08-12T06:54:27;99964.34;;;24.84;80.94
11327;BME280;5718;42.138;24.762;2023-08-12T06:56:54;99969.19;;;24.93;77.84
11327;BME280;5718;42.138;24.762;2023-08-12T06:59:20;99965.44;;;24.80;77.87
11327;BME280;5718;42.138;24.762;2023-08-12T07:01:47;99966.16;;;24.83;77.00
11327;BME280;5718;42.138;24.762;2023-08-12T07:04:15;99963.09;;;24.91;75.67
11327;BME280;5718;42.138;24.762;2023-08-12T07:06:42;99959.88;;;25.02;74.57
11327;BME280;5718;42.138;24.762;2023-08-12T07:09:08;99954.69;;;25.66;71.22
11327;BME280;5718;42.138;24.762;2023-08-12T07:11:35;99954.28;;;26.21;67.94
11327;BME280;5718;42.138;24.762;2023-08-12T07:14:02;99954.72;;;25.98;64.62
11327;BME280;5718;42.138;24.762;2023-08-12T07:16:28;99953.50;;;26.19;62.70
11327;BME280;5718;42.138;24.762;2023-08-12T07:18:55;99953.66;;;26.48;60.49
11327;BME280;5718;42.138;24.762;2023-08-12T07:21:23;99949.13;;;26.50;59.75
11327;BME280;5718;42.138;24.762;2023-08-12T07:23:50;99962.09;;;26.24;59.44
11327;BME280;5718;42.138;24.762;2023-08-12T07:26:17;99961.16;;;26.25;59.59
11327;BME280;5718;42.138;24.762;2023-08-12T07:28:43;99959.69;;;26.20;58.89
11327;BME280;5718;42.138;24.762;2023-08-12T07:31:10;99955.38;;;26.65;57.11
11327;BME280;5718;42.138;24.762;2023-08-12T07:33:37;99952.84;;;27.36;54.22
11327;BME280;5718;42.138;24.762;2023-08-12T07:36:04;99955.59;;;27.34;54.60
11327;BME280;5718;42.138;24.762;2023-08-12T07:38:32;99953.97;;;26.87;55.19
11327;BME280;5718;42.138;24.762;2023-08-12T07:41:00;99955.56;;;27.06;55.41
11327;BME280;5718;42.138;24.762;2023-08-12T07:43:26;99957.69;;;27.29;55.12
11327;BME280;5718;42.138;24.762;2023-08-12T07:45:53;99956.63;;;27.46;54.23
11327;BME280;5718;42.138;24.762;2023-08-12T07:48:21;99956.44;;;27.21;54.69
11327;BME280;5718;42.138;24.762;2023-08-12T07:50:54;99946.38;;;26.96;56.00
11327;BME280;5718;42.138;24.762;2023-08-12T07:53:21;99948.69;;;27.02;56.53
11327;BME280;5718;42.138;24.762;2023-08-12T07:55:49;99954.34;;;27.11;55.13
11327;BME280;5718;42.138;24.762;2023-08-12T07:58:16;99951.59;;;27.56;52.14
11327;BME280;5718;42.138;24.762;2023-08-12T08:00:43;99953.88;;;27.62;52.77
11327;BME280;5718;42.138;24.762;2023-08-12T08:03:09;99955.88;;;27.87;50.95
11327;BME280;5718;42.138;24.762;2023-08-12T08:05:39;99941.06;;;27.95;51.30
11327;BME280;5718;42.138;24.762;2023-08-12T08:08:06;99948.31;;;28.35;50.32
11327;BME280;5718;42.138;24.762;2023-08-12T08:10:33;99947.22;;;28.91;48.35
11327;BME280;5718;42.138;24.762;2023-08-12T08:13:01;99942.97;;;28.35;49.08
11327;BME280;5718;42.138;24.762;2023-08-12T08:15:28;99948.09;;;28.38;47.51
11327;BME280;5718;42.138;24.762;2023-08-12T08:17:54;99938.38;;;27.95;47.38
11327;BME280;5718;42.138;24.762;2023-08-12T08:20:21;99932.91;;;27.84;49.19
11327;BME280;5718;42.138;24.762;2023-08-12T08:22:48;99937.72;;;28.06;48.92
11327;BME280;5718;42.138;24.762;2023-08-12T08:25:15;99937.22;;;28.14;48.28
11327;BME280;5718;42.138;24.762;2023-08-12T08:27:42;99934.81;;;27.25;50.98
11327;BME280;5718;42.138;24.762;2023-08-12T08:30:11;99940.75;;;28.41;49.09
11327;BME280;5718;42.138;24.762;2023-08-12T08:32:38;99936.59;;;29.28;46.03
11327;BME280;5718;42.138;24.762;2023-08-12T08:35:05;99929.91;;;29.84;44.49
11327;BME280;5718;42.138;24.762;2023-08-12T08:37:32;99936.41;;;29.05;44.84
11327;BME280;5718;42.138;24.762;2023-08-12T08:39:59;99931.06;;;29.56;44.35
11327;BME280;5718;42.138;24.762;2023-08-12T08:42:26;99930.09;;;30.31;41.56
11327;BME280;5718;42.138;24.762;2023-08-12T08:44:53;99923.13;;;29.17;44.36
11327;BME280;5718;42.138;24.762;2023-08-12T08:47:25;99923.31;;;28.88;45.91
11327;BME280;5718;42.138;24.762;2023-08-12T08:49:53;99920.84;;;29.74;43.73
11327;BME280;5718;42.138;24.762;2023-08-12T08:52:21;99922.50;;;29.00;44.96
11327;BME280;5718;42.138;24.762;2023-08-12T08:54:49;99926.34;;;29.22;44.46
11327;BME280;5718;42.138;24.762;2023-08-12T08:57:16;99910.28;;;29.97;43.10
11327;BME280;5718;42.138;24.762;2023-08-12T08:59:43;99910.91;;;30.48;41.98
11327;BME280;5718;42.138;24.762;2023-08-12T09:02:15;99906.53;;;30.58;41.73
11327;BME280;5718;42.138;24.762;2023-08-12T09:04:43;99900.47;;;30.32;42.31
11327;BME280;5718;42.138;24.762;2023-08-12T09:07:11;99909.44;;;30.79;41.12
11327;BME280;5718;42.138;24.762;2023-08-12T09:09:40;99901.06;;;30.25;41.24
11327;BME280;5718;42.138;24.762;2023-08-12T09:12:09;99900.50;;;30.08;41.57
11327;BME280;5718;42.138;24.762;2023-08-12T09:14:39;99893.00;;;30.25;40.30
11327;BME280;5718;42.138;24.762;2023-08-12T09:17:06;99898.03;;;30.64;39.56
11327;BME280;5718;42.138;24.762;2023-08-12T09:19:33;99899.78;;;30.76;39.58
11327;BME280;5718;42.138;24.762;2023-08-12T09:22:03;99898.09;;;30.75;38.99
11327;BME280;5718;42.138;24.762;2023-08-12T09:24:29;99891.78;;;30.99;38.97
11327;BME280;5718;42.138;24.762;2023-08-12T09:26:56;99890.53;;;30.81;38.66
11327;BME280;5718;42.138;24.762;2023-08-12T09:29:23;99881.03;;;30.17;39.51
11327;BME280;5718;42.138;24.762;2023-08-12T09:31:51;99877.97;;;29.74;40.51
11327;BME280;5718;42.138;24.762;2023-08-12T09:34:18;99867.84;;;29.90;40.39
11327;BME280;5718;42.138;24.762;2023-08-12T09:36:44;99860.94;;;29.99;39.88
11327;BME280;5718;42.138;24.762;2023-08-12T09:39:14;99863.91;;;30.07;39.98
11327;BME280;5718;42.138;24.762;2023-08-12T09:41:43;99877.34;;;30.66;39.47
11327;BME280;5718;42.138;24.762;2023-08-12T09:44:09;99860.56;;;30.87;39.11
11327;BME280;5718;42.138;24.762;2023-08-12T09:46:36;99861.91;;;31.03;38.21
11327;BME280;5718;42.138;24.762;2023-08-12T09:49:04;99863.75;;;31.48;37.96
11327;BME280;5718;42.138;24.762;2023-08-12T09:51:36;99858.25;;;31.16;38.17
11327;BME280;5718;42.138;24.762;2023-08-12T09:54:05;99857.53;;;30.56;39.31
11327;BME280;5718;42.138;24.762;2023-08-12T09:56:34;99858.97;;;30.95;38.60
11327;BME280;5718;42.138;24.762;2023-08-12T09:59:05;99854.56;;;30.72;38.73
11327;BME280;5718;42.138;24.762;2023-08-12T10:01:32;99856.66;;;30.80;38.74
11327;BME280;5718;42.138;24.762;2023-08-12T10:04:00;99849.81;;;31.09;38.85
11327;BME280;5718;42.138;24.762;2023-08-12T10:06:27;99850.28;;;31.03;38.45
11327;BME280;5718;42.138;24.762;2023-08-12T10:08:54;99842.25;;;30.81;38.82
11327;BME280;5718;42.138;24.762;2023-08-12T10:11:21;99836.63;;;31.51;37.70
11327;BME280;5718;42.138;24.762;2023-08-12T10:13:49;99834.81;;;31.40;37.01
11327;BME280;5718;42.138;24.762;2023-08-12T10:16:17;99838.50;;;31.39;37.12
11327;BME280;5718;42.138;24.762;2023-08-12T10:18:46;99829.84;;;31.24;36.68
11327;BME280;5718;42.138;24.762;2023-08-12T10:21:14;99837.88;;;30.91;37.26
11327;BME280;5718;42.138;24.762;2023-08-12T10:23:43;99839.31;;;30.72;37.75
11327;BME280;5718;42.138;24.762;2023-08-12T10:26:11;99823.41;;;30.58;38.35
11327;BME280;5718;42.138;24.762;2023-08-12T10:28:37;99835.06;;;31.15;36.98
11327;BME280;5718;42.138;24.762;2023-08-12T10:31:06;99822.84;;;31.44;36.13
11327;BME280;5718;42.138;24.762;2023-08-12T10:33:35;99819.31;;;30.99;37.17
11327;BME280;5718;42.138;24.762;2023-08-12T10:36:03;99824.31;;;31.48;36.58
11327;BME280;5718;42.138;24.762;2023-08-12T10:38:31;99816.97;;;32.05;35.71
11327;BME280;5718;42.138;24.762;2023-08-12T10:41:16;99813.75;;;32.11;35.79
11327;BME280;5718;42.138;24.762;2023-08-12T10:43:53;99808.56;;;31.98;36.26
11327;BME280;5718;42.138;24.762;2023-08-12T10:46:29;99804.03;;;31.99;36.76
11327;BME280;5718;42.138;24.762;2023-08-12T10:48:58;99805.84;;;32.30;35.32
11327;BME280;5718;42.138;24.762;2023-08-12T10:51:46;99807.28;;;31.81;36.22
11327;BME280;5718;42.138;24.762;2023-08-12T10:54:18;99799.72;;;31.64;36.08
11327;BME280;5718;42.138;24.762;2023-08-12T10:57:06;99805.81;;;31.77;35.84
11327;BME280;5718;42.138;24.762;2023-08-12T10:59:53;99800.03;;;31.39;36.30
11327;BME280;5718;42.138;24.762;2023-08-12T11:02:26;99786.47;;;31.95;36.01
11327;BME280;5718;42.138;24.762;2023-08-12T11:04:53;99788.91;;;31.54;35.69
11327;BME280;5718;42.138;24.762;2023-08-12T11:07:38;99789.88;;;31.97;35.38
11327;BME280;5718;42.138;24.762;2023-08-12T11:10:09;99784.47;;;32.29;34.86
11327;BME280;5718;42.138;24.762;2023-08-12T11:12:36;99781.16;;;32.25;35.02
11327;BME280;5718;42.138;24.762;2023-08-12T11:15:04;99779.72;;;32.21;35.56
11327;BME280;5718;42.138;24.762;2023-08-12T11:17:37;99776.50;;;32.27;35.20
11327;BME280;5718;42.138;24.762;2023-08-12T11:20:05;99776.66;;;32.47;34.82
11327;BME280;5718;42.138;24.762;2023-08-12T11:22:36;99775.50;;;32.39;34.69
11327;BME280;5718;42.138;24.762;2023-08-12T11:25:05;99776.94;;;31.91;35.25
11327;BME280;5718;42.138;24.762;2023-08-12T11:27:42;99766.28;;;31.57;36.42
11327;BME280;5718;42.138;24.762;2023-08-12T11:30:11;99762.00;;;31.22;36.64
11327;BME280;5718;42.138;24.762;2023-08-12T11:32:42;99758.88;;;31.49;36.21
11327;BME280;5718;42.138;24.762;2023-08-12T11:35:10;99757.84;;;30.96;36.68
11327;BME280;5718;42.138;24.762;2023-08-12T11:37:38;99757.38;;;31.56;36.20
11327;BME280;5718;42.138;24.762;2023-08-12T11:40:07;99746.16;;;31.51;36.28
11327;BME280;5718;42.138;24.762;2023-08-12T11:42:35;99759.47;;;31.96;35.93
11327;BME280;5718;42.138;24.762;2023-08-12T11:45:02;99750.81;;;32.34;35.33
11327;BME280;5718;42.138;24.762;2023-08-12T11:47:29;99750.47;;;32.07;35.31
11327;BME280;5718;42.138;24.762;2023-08-12T11:49:57;99753.66;;;31.69;35.28
11327;BME280;5718;42.138;24.762;2023-08-12T11:52:24;99745.00;;;31.76;35.45
11327;BME280;5718;42.138;24.762;2023-08-12T11:54:52;99746.38;;;32.45;35.05
11327;BME280;5718;42.138;24.762;2023-08-12T11:57:19;99747.78;;;32.49;34.82
11327;BME280;5718;42.138;24.762;2023-08-12T11:59:48;99745.22;;;32.26;34.50
11327;BME280;5718;42.138;24.762;2023-08-12T12:02:15;99743.31;;;31.64;36.05
11327;BME280;5718;42.138;24.762;2023-08-12T12:04:42;99743.91;;;31.79;35.88
11327;BME280;5718;42.138;24.762;2023-08-12T12:07:21;99739.31;;;31.91;35.01
11327;BME280;5718;42.138;24.762;2023-08-12T12:09:50;99739.84;;;32.05;35.15
11327;BME280;5718;42.138;24.762;2023-08-12T12:12:17;99739.78;;;32.17;35.17
11327;BME280;5718;42.138;24.762;2023-08-12T12:14:46;99743.50;;;32.36;34.60
11327;BME280;5718;42.138;24.762;2023-08-12T12:17:14;99733.97;;;32.11;35.80
11327;BME280;5718;42.138;24.762;2023-08-12T12:19:41;99731.78;;;32.26;34.87
11327;BME280;5718;42.138;24.762;2023-08-12T12:22:08;99728.78;;;32.40;35.65
11327;BME280;5718;42.138;24.762;2023-08-12T12:24:45;99726.94;;;32.20;35.30
11327;BME280;5718;42.138;24.762;2023-08-12T12:27:12;99723.31;;;31.57;36.31
11327;BME280;5718;42.138;24.762;2023-08-12T12:29:40;99718.38;;;31.73;36.35
11327;BME280;5718;42.138;24.762;2023-08-12T12:32:06;99720.75;;;32.50;35.54
11327;BME280;5718;42.138;24.762;2023-08-12T12:34:33;99710.53;;;33.34;33.80
11327;BME280;5718;42.138;24.762;2023-08-12T12:37:00;99717.88;;;32.21;35.75
11327;BME280;5718;42.138;24.762;2023-08-12T12:39:26;99714.66;;;31.85;35.90
11327;BME280;5718;42.138;24.762;2023-08-12T12:41:54;99713.97;;;31.72;36.10
11327;BME280;5718;42.138;24.762;2023-08-12T12:44:23;99706.88;;;31.82;36.17
11327;BME280;5718;42.138;24.762;2023-08-12T12:46:50;99711.00;;;31.86;36.92
11327;BME280;5718;42.138;24.762;2023-08-12T12:49:16;99703.41;;;31.92;36.10
11327;BME280;5718;42.138;24.762;2023-08-12T12:51:43;99718.78;;;31.57;36.53
11327;BME280;5718;42.138;24.762;2023-08-12T12:54:10;99702.31;;;31.08;37.72
11327;BME280;5718;42.138;24.762;2023-08-12T12:56:37;99696.38;;;31.04;37.48
11327;BME280;5718;42.138;24.762;2023-08-12T12:59:05;99699.34;;;30.79;36.75